Andrus Island, California
Current Conditions -  °F | °C
As of 5:58 PM on Tuesday 21 Oct 2014 (Local Time) from KSUU Reporting Station
Clear Clear  
Wind Chill: 71°   Ceiling: Unl
Heat Index: 71°   Visibility: 10mi
Dew Point: 43°   Wind: 10mph
Humidity: 36%   Direction: 250°WSW
Pressure: 29.98"   Gusts: NA
Location:  38.1457°N, 121.624°W
Report Text: KSUU 220058Z AUTO 25009KT 10SM CLR 22/06 A2998 RMK AO2 SLP159 T02160060 $
Loading
Personal Weather Stations






























Interactive Weather Map
Tropical Storm Tracking
New forecast layout! Learn more

10-Day Weather Forecast

Advertisements
Track Severe Weather on mobile